Wayland, MO

6:50 AM CDT on September 22, 2014 (GMT -0500)
Keokuk Municipal | Change Station
CLOSE
Current Station
Airport
Location: Keokuk,
Elevation: 673 ft
Nearby Weather Stations

Elev 673 ft 40.46 °N, 91.43 °W | Updated 15 minutes ago

Clear
Clear
48 °F
Feels Like 48 °F
N
0
Wind Variable Wind from North

Today
High -- | Low -- °F
--% Chance of Precip.
Yesterday
High -- | Low -- °F
Precip. -- in
6:53 AM 7:03 PM
Waning Crescent, 3% visible
Pressure 30.27 in
Visibility 10.0 miles
Clouds Clear
Dew Point 46 °F
Humidity 93%
Rainfall 0.00 in
Snow Depth Not available.
UV 0 out of 12
Pollen 4.40 out of 12
Air Quality Not available.
Flu Activity Not available.
METAR KEOK 221135Z AUTO 00000KT 10SM CLR 09/08 A3027 RMK AO2

More Conditions Fewer Conditions

Pressure 30.27 in
Visibility 10.0 miles
Clouds Clear
Dew Point 46 °F
Humidity 93%
Rainfall 0.00 in
Snow Depth Not available.
UV 0 out of 12
Pollen 4.40 out of 12
Air Quality Not available.
Flu Activity Not available.
METAR KEOK 221135Z AUTO 00000KT 10SM CLR 09/08 A3027 RMK AO2

More Conditions Fewer Conditions

10-Day Weather Forecast

Almanac

Astronomy

Sep. 22, 2014 Rise Set
Actual Time 6:53 AM CDT 7:03 PM CDT
Civil Twilight 6:26 AM CDT 7:30 PM CDT
Nautical Twilight 5:54 AM CDT 8:02 PM CDT
Astronomical Twilight 5:22 AM CDT 8:34 PM CDT
Moon 5:22 AM CDT 6:11 PM CDT
Length of Visible Light 13h 03m
Length of Day
12h 09m
Tomorrow will be 2m 39s shorter.
Waning Crescent, 3% of the Moon is Illuminated
Today
Waning Crescent
Sep 24
New
Oct 1
First Quarter
Oct 8
Full
Oct 15
Last Quarter

Today's Extremes

State Highs State Lows

Community

WunderPhotos

Upload Photos

1,755,409 photos uploaded!

WunderBlogs® & News

Nearby

Snow Depth

Station Depth Elevation
No new snow has been reported.

Earthquake Activity

City Distance Mag. Time & Date
No recent earthquake activity has been reported nearby.
Minimum magnitude displayed is 2.5.

Coastal Water Temperatures

Place Temperature
No Stations Reporting

Nearby Weather Stations